18 Apr 2019 15:07 UTC 2019108+15:07 UTC

Overview Datums Bench Marks Data Query Site Visit Daily QC Messages Attributes

043: Nueces Delta 3

27° 53' 1" N   97° 31' 59" W
NUDE3
The Coastal Bend Bays & Estuaries Program Coastal Bend Bays and Estuaries Program

Station Information

Nueces Delta 3
Nueces Delta 3
more pictures
 
Station Name:Nueces Delta 3
DNR ID:043
Location:27° 53' 1" N, 97° 31' 59" W

Water Level Forecasts

Latest Observations

Series Metric English Marine Observed at
Water Temperature 21.9 °C 71.4 °F 71.4 °F Apr 18 10:00 CDT
00h07m ago
Salinity 15.900 psu 15.900 psu 15.900 psu Apr 18 10:00 CDT
00h07m ago

Maps

Nueces Delta 3
All Stations in Area
Entire Network
 

Recent Observations

Date/Time Water
Temp (°F)
Sal (psu)
Apr 18 10:00 CDT 71.4 15.900
Apr 18 09:00 CDT 70.7 16.200
Apr 18 08:00 CDT 71.1 16.000
Apr 18 07:00 CDT 72.0 15.900
Apr 18 06:00 CDT 72.9 15.600
Apr 18 05:00 CDT 73.8 16.000
Apr 18 04:00 CDT 74.3 16.000
Apr 18 03:00 CDT 74.3 15.900
Apr 18 02:00 CDT 74.5 16.100
Apr 18 01:00 CDT 74.7 16.000
Apr 18 00:00 CDT 74.7 15.600
Apr 17 23:00 CDT 74.8 15.600
Apr 17 22:00 CDT 75.0 15.700
Apr 17 21:00 CDT 75.4 16.100
Apr 17 20:00 CDT 75.6 16.200
Apr 17 19:00 CDT 76.6 16.500
Apr 17 18:00 CDT 76.8 16.600
Apr 17 17:00 CDT 76.1 16.600
Apr 17 16:00 CDT 75.6 16.500
Apr 17 15:00 CDT 74.8 16.400
Apr 17 14:00 CDT 74.3 16.500
Apr 17 13:00 CDT 73.8 16.400
Apr 17 12:00 CDT 73.6 16.400
Apr 17 11:00 CDT 73.2 16.400
Apr 17 10:00 CDT 72.9 16.400

Historical Data Availability